createdAt,value
2023-05-21T00:00:30.626Z,95611.00
2023-05-21T00:01:30.943Z,95609.00
2023-05-21T00:02:29.768Z,95607.00
2023-05-21T00:03:30.008Z,95605.00
2023-05-21T00:04:29.851Z,95603.00
2023-05-21T00:06:50.124Z,95605.00
2023-05-21T00:07:49.850Z,95607.00
2023-05-21T00:08:50.976Z,95607.00
2023-05-21T00:11:08.781Z,95611.00
2023-05-21T00:12:09.952Z,95611.00
2023-05-21T00:13:08.878Z,95609.00
2023-05-21T00:14:08.696Z,95611.00
2023-05-21T00:15:08.600Z,95613.00
2023-05-21T00:16:09.625Z,95609.00
2023-05-21T00:17:08.707Z,95613.00
2023-05-21T00:18:08.678Z,95609.00
2023-05-21T00:19:08.654Z,95609.00
2023-05-21T00:20:08.620Z,95607.00
2023-05-21T00:21:08.573Z,95607.00
2023-05-21T00:22:08.582Z,95609.00
2023-05-21T00:23:09.543Z,95603.00
2023-05-21T00:25:28.054Z,95599.00
2023-05-21T00:26:29.323Z,95601.00
2023-05-21T00:27:29.082Z,95599.00
2023-05-21T00:28:29.048Z,95595.00
2023-05-21T00:29:29.182Z,95597.00
2023-05-21T00:30:29.042Z,95593.00
2023-05-21T00:31:28.222Z,95593.00
2023-05-21T00:32:29.009Z,95601.00
2023-05-21T00:35:27.991Z,95601.00
2023-05-21T00:36:27.959Z,95601.00
2023-05-21T00:38:47.077Z,95601.00
2023-05-21T00:39:47.364Z,95599.00
2023-05-21T00:40:47.050Z,95593.00
2023-05-21T00:41:48.075Z,95591.00
2023-05-21T00:42:46.995Z,95591.00
2023-05-21T00:45:07.599Z,95589.00
2023-05-21T00:46:07.393Z,95587.00
2023-05-21T00:48:26.633Z,95589.00
2023-05-21T00:50:46.006Z,95591.00
2023-05-21T00:51:46.717Z,95595.00
2023-05-21T00:52:46.963Z,95597.00
2023-05-21T00:53:46.732Z,95601.00
2023-05-21T00:54:46.778Z,95597.00
2023-05-21T00:55:46.651Z,95599.00
2023-05-21T00:56:45.914Z,95603.00
2023-05-21T00:57:45.602Z,95601.00
2023-05-21T00:58:45.833Z,95597.00
2023-05-21T00:59:46.623Z,95599.00
2023-05-21T01:00:45.782Z,95595.00
2023-05-21T01:01:45.990Z,95595.00
2023-05-21T01:02:46.772Z,95595.00
2023-05-21T01:03:45.761Z,95595.00
2023-05-21T01:04:45.592Z,95593.00
2023-05-21T01:07:04.988Z,95591.00
2023-05-21T01:08:05.809Z,95595.00
2023-05-21T01:11:24.425Z,95595.00
2023-05-21T01:12:24.331Z,95593.00
2023-05-21T01:13:25.493Z,95593.00
2023-05-21T01:14:25.345Z,95589.00
2023-05-21T01:15:25.268Z,95589.00
2023-05-21T01:16:25.138Z,95593.00
2023-05-21T01:17:25.143Z,95589.00
2023-05-21T01:18:24.290Z,95591.00
2023-05-21T01:19:24.209Z,95591.00
2023-05-21T01:20:25.089Z,95595.00
2023-05-21T01:21:25.293Z,95593.00
2023-05-21T01:22:24.065Z,95591.00
2023-05-21T01:23:24.288Z,95589.00
2023-05-21T01:24:25.341Z,95587.00
2023-05-21T01:25:24.032Z,95586.00
2023-05-21T01:26:25.241Z,95582.00
2023-05-21T01:27:25.189Z,95582.00
2023-05-21T01:28:25.074Z,95580.00
2023-05-21T01:30:43.586Z,95584.00
2023-05-21T01:31:43.775Z,95584.00
2023-05-21T01:32:43.748Z,95587.00
2023-05-21T01:33:43.494Z,95586.00
2023-05-21T01:34:43.503Z,95589.00
2023-05-21T01:37:03.107Z,95587.00
2023-05-21T01:38:03.271Z,95584.00
2023-05-21T01:39:03.151Z,95586.00
2023-05-21T01:40:02.997Z,95586.00
2023-05-21T01:41:04.044Z,95582.00
2023-05-21T01:42:03.058Z,95580.00
2023-05-21T01:43:03.972Z,95576.00
2023-05-21T01:44:04.182Z,95578.00
2023-05-21T01:45:04.074Z,95576.00
2023-05-21T01:46:03.180Z,95576.00
2023-05-21T01:48:23.532Z,95587.00
2023-05-21T01:49:23.206Z,95584.00
2023-05-21T01:50:23.353Z,95587.00
2023-05-21T01:51:24.144Z,95587.00
2023-05-21T01:52:24.155Z,95586.00
2023-05-21T01:53:23.074Z,95586.00
2023-05-21T01:54:24.125Z,95584.00
2023-05-21T01:55:24.133Z,95584.00
2023-05-21T01:56:23.137Z,95587.00
2023-05-21T01:58:42.611Z,95587.00
2023-05-21T01:59:43.489Z,95591.00
2023-05-21T02:00:43.692Z,95589.00
2023-05-21T02:01:42.476Z,95593.00
2023-05-21T02:02:42.413Z,95589.00
2023-05-21T02:03:42.402Z,95591.00
2023-05-21T02:06:01.761Z,95587.00
2023-05-21T02:08:21.270Z,95587.00
2023-05-21T02:12:40.563Z,95591.00
2023-05-21T02:13:41.336Z,95589.00
2023-05-21T02:14:40.569Z,95589.00
2023-05-21T02:15:41.368Z,95589.00
2023-05-21T02:16:40.374Z,95593.00
2023-05-21T02:17:41.298Z,95587.00
2023-05-21T02:18:41.249Z,95589.00
2023-05-21T02:19:41.223Z,95591.00
2023-05-21T02:20:40.273Z,95589.00
2023-05-21T02:21:41.209Z,95591.00
2023-05-21T02:22:41.226Z,95593.00
2023-05-21T02:23:41.278Z,95589.00
2023-05-21T02:25:59.400Z,95589.00
2023-05-21T02:26:59.466Z,95589.00
2023-05-21T02:27:59.339Z,95589.00
2023-05-21T02:30:18.497Z,95586.00
2023-05-21T02:31:18.432Z,95582.00
2023-05-21T02:32:18.171Z,95582.00
2023-05-21T02:34:37.775Z,95586.00
2023-05-21T02:35:37.917Z,95584.00
2023-05-21T02:36:37.710Z,95580.00
2023-05-21T02:37:37.473Z,95580.00
2023-05-21T02:41:16.637Z,95578.00
2023-05-21T02:43:36.241Z,95576.00
2023-05-21T02:47:14.217Z,95570.00
2023-05-21T02:48:15.231Z,95568.00
2023-05-21T02:49:15.061Z,95568.00
2023-05-21T02:50:15.041Z,95566.00
2023-05-21T02:51:14.255Z,95566.00
2023-05-21T02:52:14.206Z,95560.00
2023-05-21T02:53:15.168Z,95560.00
2023-05-21T02:54:14.018Z,95564.00
2023-05-21T02:55:14.168Z,95564.00
2023-05-21T02:56:14.038Z,95568.00
2023-05-21T02:58:40.481Z,95572.00
2023-05-21T02:59:41.236Z,95576.00
2023-05-21T03:00:40.420Z,95576.00
2023-05-21T03:01:40.153Z,95574.00
2023-05-21T03:02:40.229Z,95576.00
2023-05-21T03:05:36.417Z,95580.00
2023-05-21T03:06:37.146Z,95576.00
2023-05-21T03:20:43.270Z,95582.00
2023-05-21T03:21:43.017Z,95584.00
2023-05-21T03:22:43.157Z,95582.00
2023-05-21T03:25:02.510Z,95584.00
2023-05-21T03:26:03.650Z,95580.00
2023-05-21T03:27:02.434Z,95586.00
2023-05-21T03:29:21.944Z,95582.00
2023-05-21T03:30:23.157Z,95584.00
2023-05-21T03:32:41.804Z,95584.00
2023-05-21T03:35:19.709Z,95587.00
2023-05-21T03:36:19.504Z,95586.00
2023-05-21T03:37:20.717Z,95584.00
2023-05-21T03:38:19.603Z,95587.00
2023-05-21T03:39:19.408Z,95587.00
2023-05-21T03:41:39.479Z,95587.00
2023-05-21T03:42:40.524Z,95587.00
2023-05-21T03:46:18.777Z,95589.00
2023-05-21T03:47:19.389Z,95586.00
2023-05-21T03:48:18.586Z,95587.00
2023-05-21T03:49:19.348Z,95586.00
2023-05-21T03:50:19.235Z,95584.00
2023-05-21T03:51:18.264Z,95582.00
2023-05-21T03:56:16.749Z,95582.00
2023-05-21T03:57:17.961Z,95580.00
2023-05-21T03:58:17.671Z,95580.00
2023-05-21T03:59:16.702Z,95578.00
2023-05-21T04:00:16.672Z,95578.00
2023-05-21T04:01:16.616Z,95580.00
2023-05-21T04:02:16.732Z,95580.00
2023-05-21T04:03:16.836Z,95574.00
2023-05-21T04:04:16.750Z,95576.00
2023-05-21T04:05:16.615Z,95578.00
2023-05-21T04:06:16.604Z,95574.00
2023-05-21T04:09:36.834Z,95580.00
2023-05-21T04:10:37.521Z,95586.00
2023-05-21T04:12:55.579Z,95587.00
2023-05-21T04:13:55.752Z,95591.00
2023-05-21T04:14:55.626Z,95589.00
2023-05-21T04:15:55.613Z,95593.00
2023-05-21T04:16:55.533Z,95593.00
2023-05-21T04:17:56.524Z,95593.00
2023-05-21T04:18:55.742Z,95593.00
2023-05-21T04:19:55.435Z,95595.00
2023-05-21T04:20:55.617Z,95591.00
2023-05-21T04:21:56.434Z,95589.00
2023-05-21T04:24:14.830Z,95586.00
2023-05-21T04:26:33.818Z,95587.00
2023-05-21T04:27:33.612Z,95589.00
2023-05-21T04:28:33.861Z,95591.00
2023-05-21T04:29:33.652Z,95593.00
2023-05-21T04:31:53.672Z,95599.00
2023-05-21T04:34:12.599Z,95597.00
2023-05-21T04:35:13.714Z,95597.00
2023-05-21T04:36:13.254Z,95597.00
2023-05-21T04:37:13.301Z,95599.00
2023-05-21T04:38:12.379Z,95605.00
2023-05-21T04:39:13.254Z,95603.00
2023-05-21T04:40:12.255Z,95603.00
2023-05-21T04:41:12.258Z,95605.00
2023-05-21T04:42:13.475Z,95599.00
2023-05-21T04:43:12.416Z,95601.00
2023-05-21T04:44:12.215Z,95597.00
2023-05-21T04:46:32.191Z,95597.00
2023-05-21T04:47:32.852Z,95593.00
2023-05-21T04:48:32.066Z,95597.00
2023-05-21T04:49:31.784Z,95595.00
2023-05-21T04:50:32.726Z,95597.00
2023-05-21T04:51:32.749Z,95601.00
2023-05-21T04:53:51.488Z,95605.00
2023-05-21T04:54:52.348Z,95607.00
2023-05-21T04:55:52.450Z,95605.00
2023-05-21T04:56:51.238Z,95609.00
2023-05-21T04:59:10.667Z,95613.00
2023-05-21T05:00:10.505Z,95611.00
2023-05-21T05:03:09.966Z,95609.00
2023-05-21T05:04:10.058Z,95607.00
2023-05-21T05:05:11.022Z,95607.00
2023-05-21T05:06:10.736Z,95607.00
2023-05-21T05:07:10.924Z,95605.00
2023-05-21T05:08:11.430Z,95605.00
2023-05-21T05:09:10.935Z,95605.00
2023-05-21T05:10:09.987Z,95603.00
2023-05-21T05:11:09.860Z,95603.00
2023-05-21T05:12:09.958Z,95603.00
2023-05-21T05:13:11.148Z,95601.00
2023-05-21T05:14:09.976Z,95597.00
2023-05-21T05:15:10.921Z,95597.00
2023-05-21T05:16:11.024Z,95597.00
2023-05-21T05:17:11.106Z,95595.00
2023-05-21T05:18:10.097Z,95597.00
2023-05-21T05:19:10.222Z,95595.00
2023-05-21T05:20:10.076Z,95597.00
2023-05-21T05:21:09.957Z,95601.00
2023-05-21T05:22:13.341Z,95597.00
2023-05-21T05:23:11.008Z,95599.00
2023-05-21T05:25:29.590Z,95591.00
2023-05-21T05:26:30.690Z,95595.00
2023-05-21T05:27:29.584Z,95597.00
2023-05-21T05:28:29.675Z,95595.00
2023-05-21T05:32:08.457Z,95593.00
2023-05-21T05:33:09.479Z,95589.00
2023-05-21T05:34:09.364Z,95589.00
2023-05-21T05:35:08.351Z,95586.00
2023-05-21T05:37:28.099Z,95586.00
2023-05-21T05:38:28.834Z,95586.00
2023-05-21T05:39:28.860Z,95586.00
2023-05-21T05:40:28.652Z,95586.00
2023-05-21T05:41:27.576Z,95584.00
2023-05-21T05:42:28.710Z,95584.00
2023-05-21T05:44:46.726Z,95582.00
2023-05-21T05:45:46.875Z,95582.00
2023-05-21T05:46:47.664Z,95580.00
2023-05-21T05:47:46.809Z,95578.00
2023-05-21T05:48:47.611Z,95578.00
2023-05-21T05:49:46.544Z,95578.00
2023-05-21T05:50:46.626Z,95582.00
2023-05-21T05:51:46.558Z,95580.00
2023-05-21T05:52:46.746Z,95586.00
2023-05-21T05:53:46.551Z,95582.00
2023-05-21T05:54:46.549Z,95584.00
2023-05-21T05:55:46.563Z,95578.00
2023-05-21T05:56:46.710Z,95574.00
2023-05-21T05:57:46.502Z,95572.00
2023-05-21T05:58:46.783Z,95576.00
2023-05-21T05:59:46.516Z,95574.00
2023-05-21T06:00:46.801Z,95574.00
2023-05-21T06:01:46.637Z,95572.00
2023-05-21T06:02:47.762Z,95570.00
2023-05-21T06:03:46.797Z,95568.00
2023-05-21T06:04:46.664Z,95564.00
2023-05-21T06:05:46.776Z,95562.00
2023-05-21T06:06:46.659Z,95562.00
2023-05-21T06:10:25.325Z,95564.00
2023-05-21T06:11:26.032Z,95560.00
2023-05-21T06:14:59.058Z,95564.00
2023-05-21T06:15:59.111Z,95562.00
2023-05-21T06:17:00.142Z,95558.00
2023-05-21T06:17:58.836Z,95558.00
2023-05-21T06:20:18.530Z,95554.00
2023-05-21T06:21:19.223Z,95554.00
2023-05-21T06:22:19.368Z,95556.00
2023-05-21T06:23:19.137Z,95554.00
2023-05-21T06:24:19.128Z,95556.00
2023-05-21T06:26:37.637Z,95552.00
2023-05-21T06:27:38.420Z,95550.00
2023-05-21T06:28:38.598Z,95550.00
2023-05-21T06:29:38.362Z,95550.00
2023-05-21T06:30:37.453Z,95552.00
2023-05-21T06:32:57.073Z,95556.00
2023-05-21T06:33:57.878Z,95554.00
2023-05-21T06:34:57.996Z,95558.00
2023-05-21T06:35:56.725Z,95558.00
2023-05-21T06:36:57.653Z,95562.00
2023-05-21T06:37:56.716Z,95558.00
2023-05-21T06:38:56.659Z,95560.00
2023-05-21T06:39:57.654Z,95560.00
2023-05-21T06:40:57.763Z,95558.00
2023-05-21T06:41:56.689Z,95560.00
2023-05-21T06:42:56.656Z,95558.00
2023-05-21T06:43:56.624Z,95556.00
2023-05-21T06:44:56.802Z,95558.00
2023-05-21T06:45:57.741Z,95558.00
2023-05-21T06:46:56.628Z,95556.00
2023-05-21T06:47:57.814Z,95558.00
2023-05-21T06:48:57.660Z,95556.00
2023-05-21T06:49:56.601Z,95558.00
2023-05-21T06:50:56.559Z,95554.00
2023-05-21T06:53:16.141Z,95552.00
2023-05-21T06:54:17.192Z,95552.00
2023-05-21T06:55:16.910Z,95550.00
2023-05-21T06:56:16.907Z,95550.00
2023-05-21T06:57:16.948Z,95552.00
2023-05-21T06:58:16.903Z,95550.00
2023-05-21T07:00:35.695Z,95548.00
2023-05-21T07:05:34.121Z,95550.00
2023-05-21T07:06:34.161Z,95552.00
2023-05-21T07:07:49.688Z,95554.00
2023-05-21T07:11:23.271Z,95546.00
2023-05-21T07:12:24.117Z,95548.00
2023-05-21T07:13:23.228Z,95548.00
2023-05-21T07:14:22.980Z,95542.00
2023-05-21T07:15:23.923Z,95546.00
2023-05-21T07:16:23.010Z,95544.00
2023-05-21T07:17:22.928Z,95542.00
2023-05-21T07:18:23.001Z,95546.00
2023-05-21T07:19:23.984Z,95540.00
2023-05-21T07:20:23.973Z,95542.00
2023-05-21T07:21:22.905Z,95538.00
2023-05-21T07:23:42.548Z,95536.00
2023-05-21T07:24:42.304Z,95535.00
2023-05-21T07:25:42.454Z,95535.00
2023-05-21T07:26:43.256Z,95535.00
2023-05-21T07:27:43.247Z,95535.00
2023-05-21T07:28:42.294Z,95533.00
2023-05-21T07:29:43.196Z,95535.00
2023-05-21T07:30:42.249Z,95535.00
2023-05-21T07:31:42.278Z,95533.00
2023-05-21T07:32:43.348Z,95531.00
2023-05-21T07:33:43.222Z,95536.00
2023-05-21T07:34:42.155Z,95538.00
2023-05-21T07:37:26.315Z,95540.00
2023-05-21T07:38:27.067Z,95536.00
2023-05-21T07:39:27.309Z,95536.00
2023-05-21T07:40:27.014Z,95538.00
2023-05-21T07:42:45.177Z,95536.00
2023-05-21T07:43:46.224Z,95536.00
2023-05-21T07:44:44.898Z,95535.00
2023-05-21T07:45:45.951Z,95538.00
2023-05-21T07:46:46.036Z,95536.00
2023-05-21T07:47:46.026Z,95536.00
2023-05-21T07:48:44.855Z,95527.00
2023-05-21T07:51:23.161Z,95525.00
2023-05-21T07:52:22.939Z,95525.00
2023-05-21T07:53:23.956Z,95525.00
2023-05-21T07:54:22.738Z,95523.00
2023-05-21T07:55:23.819Z,95523.00
2023-05-21T07:56:23.768Z,95525.00
2023-05-21T07:57:22.923Z,95521.00
2023-05-21T07:58:23.903Z,95519.00
2023-05-21T07:59:22.783Z,95519.00
2023-05-21T08:00:22.713Z,95527.00
2023-05-21T08:01:22.677Z,95521.00
2023-05-21T08:03:42.415Z,95525.00
2023-05-21T08:04:42.195Z,95521.00
2023-05-21T08:05:42.332Z,95519.00
2023-05-21T08:06:43.087Z,95519.00
2023-05-21T08:07:43.060Z,95521.00
2023-05-21T08:08:41.989Z,95519.00
2023-05-21T08:09:42.188Z,95519.00
2023-05-21T08:10:43.102Z,95515.00
2023-05-21T08:13:00.875Z,95513.00
2023-05-21T08:15:20.248Z,95515.00
2023-05-21T08:16:20.448Z,95513.00
2023-05-21T08:17:21.225Z,95513.00
2023-05-21T08:18:21.183Z,95513.00
2023-05-21T08:19:20.202Z,95511.00
2023-05-21T08:20:20.128Z,95509.00
2023-05-21T08:21:21.231Z,95507.00
2023-05-21T08:22:21.121Z,95507.00
2023-05-21T08:23:21.364Z,95511.00
2023-05-21T08:24:21.321Z,95509.00
2023-05-21T08:25:21.317Z,95507.00
2023-05-21T08:26:20.116Z,95505.00
2023-05-21T08:27:20.087Z,95507.00
2023-05-21T08:30:58.242Z,95499.00
2023-05-21T08:31:58.446Z,95503.00
2023-05-21T08:32:59.232Z,95505.00
2023-05-21T08:33:58.213Z,95505.00
2023-05-21T08:34:58.364Z,95501.00
2023-05-21T08:35:59.348Z,95497.00
2023-05-21T08:36:58.258Z,95499.00
2023-05-21T08:37:58.345Z,95497.00
2023-05-21T08:38:59.109Z,95499.00
2023-05-21T08:39:58.192Z,95497.00
2023-05-21T08:40:58.115Z,95495.00
2023-05-21T08:41:59.128Z,95491.00
2023-05-21T08:42:58.215Z,95489.00
2023-05-21T08:43:58.212Z,95491.00
2023-05-21T08:44:58.216Z,95489.00
2023-05-21T08:47:24.296Z,95491.00
2023-05-21T08:48:25.092Z,95491.00
2023-05-21T08:49:25.726Z,95491.00
2023-05-21T08:50:25.051Z,95491.00
2023-05-21T08:51:23.939Z,95493.00
2023-05-21T08:52:23.975Z,95495.00
2023-05-21T08:53:28.635Z,95495.00
2023-05-21T08:54:24.916Z,95495.00
2023-05-21T08:55:25.885Z,95495.00
2023-05-21T08:56:24.995Z,95491.00
2023-05-21T08:57:25.003Z,95489.00
2023-05-21T08:58:23.884Z,95484.00
2023-05-21T08:59:24.885Z,95488.00
2023-05-21T09:00:24.968Z,95489.00
2023-05-21T09:01:26.438Z,95484.00
2023-05-21T09:04:01.712Z,95484.00
2023-05-21T09:04:56.595Z,95482.00
2023-05-21T09:05:55.242Z,95482.00
2023-05-21T09:06:55.212Z,95482.00
2023-05-21T09:16:30.681Z,95484.00
2023-05-21T09:17:30.496Z,95482.00
2023-05-21T09:18:30.604Z,95484.00
2023-05-21T09:20:49.755Z,95484.00
2023-05-21T09:21:50.647Z,95488.00
2023-05-21T09:22:50.761Z,95488.00
2023-05-21T09:29:31.998Z,95489.00
2023-05-21T09:32:25.239Z,95488.00
2023-05-21T09:33:25.173Z,95486.00
2023-05-21T09:34:26.127Z,95486.00
2023-05-21T09:35:24.938Z,95488.00
2023-05-21T09:36:25.941Z,95488.00
2023-05-21T09:37:27.469Z,95484.00
2023-05-21T09:43:14.758Z,95482.00
2023-05-21T09:46:53.183Z,95478.00
2023-05-21T09:47:52.913Z,95474.00
2023-05-21T09:48:53.069Z,95476.00
2023-05-21T09:49:53.884Z,95474.00
2023-05-21T09:50:52.900Z,95478.00
2023-05-21T09:51:53.851Z,95476.00
2023-05-21T09:52:54.032Z,95476.00
2023-05-21T09:53:52.804Z,95474.00
2023-05-21T09:54:54.079Z,95474.00
2023-05-21T09:55:52.772Z,95476.00
2023-05-21T09:56:53.789Z,95476.00
2023-05-21T09:57:52.772Z,95478.00
2023-05-21T09:58:52.780Z,95468.00
2023-05-21T09:59:53.954Z,95470.00
2023-05-21T10:00:53.737Z,95466.00
2023-05-21T10:01:52.894Z,95468.00
2023-05-21T10:02:53.995Z,95470.00
2023-05-21T10:03:52.738Z,95468.00
2023-05-21T10:04:54.132Z,95466.00
2023-05-21T10:05:52.722Z,95468.00
2023-05-21T10:06:53.796Z,95466.00
2023-05-21T10:07:52.806Z,95466.00
2023-05-21T10:08:52.994Z,95464.00
2023-05-21T10:09:53.674Z,95468.00
2023-05-21T10:10:53.752Z,95464.00
2023-05-21T10:11:53.757Z,95462.00
2023-05-21T10:12:53.817Z,95464.00
2023-05-21T10:13:52.652Z,95462.00
2023-05-21T10:14:52.697Z,95458.00
2023-05-21T10:15:53.680Z,95458.00
2023-05-21T10:16:53.639Z,95458.00
2023-05-21T10:17:53.922Z,95458.00
2023-05-21T10:18:53.652Z,95460.00
2023-05-21T10:19:52.624Z,95454.00
2023-05-21T10:22:11.688Z,95452.00
2023-05-21T10:24:31.259Z,95454.00
2023-05-21T10:25:31.378Z,95450.00
2023-05-21T10:26:31.198Z,95450.00
2023-05-21T10:27:32.445Z,95446.00
2023-05-21T10:28:31.264Z,95448.00
2023-05-21T10:29:32.257Z,95448.00
2023-05-21T10:30:31.166Z,95446.00
2023-05-21T10:31:32.300Z,95442.00
2023-05-21T10:32:31.182Z,95442.00
2023-05-21T10:33:32.288Z,95444.00
2023-05-21T10:34:31.165Z,95444.00
2023-05-21T10:37:22.398Z,95444.00
2023-05-21T10:38:22.339Z,95441.00
2023-05-21T10:39:22.252Z,95435.00
2023-05-21T10:40:22.259Z,95431.00
2023-05-21T10:41:22.043Z,95431.00
2023-05-21T10:42:22.049Z,95427.00
2023-05-21T10:44:41.296Z,95425.00
2023-05-21T10:45:42.218Z,95429.00
2023-05-21T10:46:42.277Z,95425.00
2023-05-21T10:47:41.022Z,95431.00
2023-05-21T10:48:41.045Z,95429.00
2023-05-21T10:51:00.345Z,95423.00
2023-05-21T10:52:01.204Z,95427.00
2023-05-21T10:53:00.346Z,95423.00
2023-05-21T10:55:19.550Z,95419.00
2023-05-21T10:56:19.634Z,95419.00
2023-05-21T10:57:19.385Z,95419.00
2023-05-21T10:58:20.339Z,95413.00
2023-05-21T10:59:20.370Z,95415.00
2023-05-21T11:00:19.311Z,95409.00
2023-05-21T11:01:19.474Z,95407.00
2023-05-21T11:02:20.460Z,95407.00
2023-05-21T11:03:20.468Z,95405.00
2023-05-21T11:04:20.343Z,95403.00
2023-05-21T11:05:20.311Z,95403.00
2023-05-21T11:06:19.266Z,95395.00
2023-05-21T11:07:20.354Z,95393.00
2023-05-21T11:08:19.352Z,95403.00
2023-05-21T11:09:19.397Z,95395.00
2023-05-21T11:10:19.329Z,95395.00
2023-05-21T11:11:19.453Z,95405.00
2023-05-21T11:12:19.261Z,95407.00
2023-05-21T11:13:20.256Z,95403.00
2023-05-21T11:14:20.873Z,95403.00
2023-05-21T11:15:19.202Z,95395.00
2023-05-21T11:16:20.260Z,95395.00
2023-05-21T11:17:19.234Z,95391.00
2023-05-21T11:18:20.188Z,95393.00
2023-05-21T11:19:20.250Z,95393.00
2023-05-21T11:20:20.208Z,95389.00
2023-05-21T11:21:19.172Z,95389.00
2023-05-21T11:22:20.193Z,95391.00
2023-05-21T11:23:19.165Z,95389.00
2023-05-21T11:24:20.159Z,95386.00
2023-05-21T11:25:19.215Z,95386.00
2023-05-21T11:26:20.253Z,95386.00
2023-05-21T11:27:19.152Z,95388.00
2023-05-21T11:28:20.147Z,95386.00
2023-05-21T11:29:20.160Z,95388.00
2023-05-21T11:30:19.139Z,95382.00
2023-05-21T11:31:19.254Z,95386.00
2023-05-21T11:35:07.688Z,95386.00
2023-05-21T11:36:07.729Z,95384.00
2023-05-21T11:37:08.499Z,95376.00
2023-05-21T11:39:26.546Z,95380.00
2023-05-21T11:40:26.593Z,95378.00
2023-05-21T11:41:26.416Z,95378.00
2023-05-21T11:42:26.243Z,95376.00
2023-05-21T11:43:26.277Z,95376.00
2023-05-21T11:44:26.321Z,95376.00
2023-05-21T11:45:26.478Z,95374.00
2023-05-21T11:46:27.270Z,95372.00
2023-05-21T11:47:26.370Z,95370.00
2023-05-21T11:48:27.373Z,95366.00
2023-05-21T11:49:27.144Z,95368.00
2023-05-21T11:50:27.224Z,95370.00
2023-05-21T11:51:27.180Z,95368.00
2023-05-21T11:52:27.129Z,95366.00
2023-05-21T11:53:26.134Z,95370.00
2023-05-21T11:54:27.138Z,95370.00
2023-05-21T12:01:19.632Z,95366.00
2023-05-21T12:02:20.554Z,95370.00
2023-05-21T12:03:20.812Z,95368.00
2023-05-21T12:04:20.467Z,95364.00
2023-05-21T12:05:19.563Z,95362.00
2023-05-21T12:06:19.422Z,95358.00
2023-05-21T12:07:19.390Z,95356.00
2023-05-21T12:08:19.427Z,95356.00
2023-05-21T12:09:20.392Z,95356.00
2023-05-21T12:10:20.439Z,95360.00
2023-05-21T12:11:20.366Z,95358.00
2023-05-21T12:12:19.444Z,95358.00
2023-05-21T12:13:20.291Z,95360.00
2023-05-21T12:14:19.387Z,95360.00
2023-05-21T12:15:19.281Z,95364.00
2023-05-21T12:16:19.370Z,95360.00
2023-05-21T12:17:19.447Z,95360.00
2023-05-21T12:18:19.238Z,95358.00
2023-05-21T12:19:20.340Z,95354.00
2023-05-21T12:20:20.539Z,95354.00
2023-05-21T12:21:19.709Z,95356.00
2023-05-21T12:22:19.499Z,95354.00
2023-05-21T12:23:19.433Z,95356.00
2023-05-21T12:24:20.541Z,95360.00
2023-05-21T12:25:20.946Z,95360.00
2023-05-21T12:26:19.609Z,95358.00
2023-05-21T12:27:19.619Z,95360.00
2023-05-21T12:28:19.653Z,95360.00
2023-05-21T12:29:19.802Z,95358.00
2023-05-21T12:30:19.723Z,95360.00
2023-05-21T12:31:20.626Z,95356.00
2023-05-21T12:32:20.746Z,95358.00
2023-05-21T12:33:19.712Z,95360.00
2023-05-21T12:34:19.822Z,95356.00
2023-05-21T12:35:19.977Z,95354.00
2023-05-21T12:36:19.805Z,95354.00
2023-05-21T12:37:20.751Z,95354.00
2023-05-21T12:38:19.985Z,95354.00
2023-05-21T12:43:48.088Z,95354.00
2023-05-21T12:46:06.639Z,95356.00
2023-05-21T12:47:07.722Z,95358.00
2023-05-21T12:48:06.546Z,95356.00
2023-05-21T12:49:06.492Z,95356.00
2023-05-21T12:50:06.451Z,95352.00
2023-05-21T12:52:25.695Z,95348.00
2023-05-21T12:53:26.408Z,95346.00
2023-05-21T12:54:25.606Z,95342.00
2023-05-21T12:55:25.533Z,95346.00
2023-05-21T12:56:25.365Z,95344.00
2023-05-21T13:05:40.998Z,95339.00
2023-05-21T13:06:40.766Z,95341.00
2023-05-21T13:07:40.971Z,95341.00
2023-05-21T13:08:41.753Z,95341.00
2023-05-21T13:09:40.768Z,95339.00
2023-05-21T13:10:40.759Z,95337.00
2023-05-21T13:11:41.742Z,95335.00
2023-05-21T13:12:42.201Z,95335.00
2023-05-21T13:13:40.620Z,95333.00
2023-05-21T13:14:40.843Z,95333.00
2023-05-21T13:15:41.869Z,95333.00
2023-05-21T13:16:41.569Z,95335.00
2023-05-21T13:17:40.700Z,95331.00
2023-05-21T13:18:40.662Z,95333.00
2023-05-21T13:19:41.568Z,95331.00
2023-05-21T13:20:40.585Z,95327.00
2023-05-21T13:21:41.005Z,95325.00
2023-05-21T13:23:59.588Z,95331.00
2023-05-21T13:24:59.553Z,95327.00
2023-05-21T13:25:59.286Z,95329.00
2023-05-21T13:27:00.371Z,95325.00
2023-05-21T13:27:59.259Z,95331.00
2023-05-21T13:28:59.271Z,95329.00
2023-05-21T13:31:18.616Z,95335.00
2023-05-21T13:33:40.101Z,95335.00
2023-05-21T13:34:39.867Z,95333.00
2023-05-21T13:35:39.732Z,95333.00
2023-05-21T13:36:40.698Z,95335.00
2023-05-21T13:37:40.952Z,95333.00
2023-05-21T13:38:39.773Z,95337.00
2023-05-21T13:39:39.673Z,95333.00
2023-05-21T13:40:40.989Z,95335.00
2023-05-21T13:41:39.680Z,95335.00
2023-05-21T13:42:39.744Z,95333.00
2023-05-21T13:43:40.704Z,95329.00
2023-05-21T13:44:40.639Z,95335.00
2023-05-21T13:45:39.653Z,95335.00
2023-05-21T13:46:39.744Z,95331.00
2023-05-21T13:47:40.592Z,95335.00
2023-05-21T13:48:39.699Z,95335.00
2023-05-21T13:49:39.668Z,95339.00
2023-05-21T13:50:39.645Z,95339.00
2023-05-21T13:51:40.595Z,95337.00
2023-05-21T13:52:40.573Z,95339.00
2023-05-21T13:53:40.593Z,95339.00
2023-05-21T13:54:39.608Z,95339.00
2023-05-21T13:55:39.660Z,95337.00
2023-05-21T13:58:05.956Z,95333.00
2023-05-21T13:59:05.733Z,95333.00
2023-05-21T14:00:06.868Z,95331.00
2023-05-21T14:01:06.983Z,95327.00
2023-05-21T14:02:06.659Z,95327.00
2023-05-21T14:03:05.672Z,95327.00
2023-05-21T14:04:05.728Z,95325.00
2023-05-21T14:05:05.667Z,95327.00
2023-05-21T14:07:25.143Z,95323.00
2023-05-21T14:08:24.831Z,95317.00
2023-05-21T14:09:25.061Z,95317.00
2023-05-21T14:10:25.842Z,95321.00
2023-05-21T14:11:24.844Z,95319.00
2023-05-21T14:12:25.705Z,95319.00
2023-05-21T14:13:24.732Z,95321.00
2023-05-21T14:14:25.796Z,95321.00
2023-05-21T14:15:24.781Z,95321.00
2023-05-21T14:16:24.767Z,95321.00
2023-05-21T14:17:24.717Z,95323.00
2023-05-21T14:18:24.661Z,95321.00
2023-05-21T14:19:24.755Z,95323.00
2023-05-21T14:20:25.733Z,95319.00
2023-05-21T14:21:25.637Z,95319.00
2023-05-21T14:22:24.761Z,95321.00
2023-05-21T14:23:24.664Z,95317.00
2023-05-21T14:24:24.616Z,95321.00
2023-05-21T14:25:24.639Z,95319.00
2023-05-21T14:26:25.645Z,95321.00
2023-05-21T14:28:43.962Z,95315.00
2023-05-21T14:29:44.076Z,95317.00
2023-05-21T14:35:19.841Z,95311.00
2023-05-21T14:36:19.995Z,95309.00
2023-05-21T14:37:19.731Z,95309.00
2023-05-21T14:38:19.732Z,95311.00
2023-05-21T14:39:20.777Z,95313.00
2023-05-21T14:40:20.868Z,95311.00
2023-05-21T14:41:19.722Z,95317.00
2023-05-21T14:42:19.738Z,95315.00
2023-05-21T15:01:01.142Z,95295.00
2023-05-21T15:02:00.965Z,95295.00
2023-05-21T15:04:50.543Z,95295.00
2023-05-21T15:05:50.388Z,95293.00
2023-05-21T15:06:51.555Z,95291.00
2023-05-21T15:07:50.334Z,95293.00
2023-05-21T15:08:50.254Z,95293.00
2023-05-21T15:09:50.301Z,95291.00
2023-05-21T15:10:50.257Z,95293.00
2023-05-21T15:11:51.280Z,95291.00
2023-05-21T15:12:51.299Z,95287.00
2023-05-21T15:13:51.459Z,95289.00
2023-05-21T15:14:51.273Z,95289.00
2023-05-21T15:15:50.386Z,95287.00
2023-05-21T15:16:51.416Z,95287.00
2023-05-21T15:17:50.319Z,95284.00